sensor_id;sensor_type;location;lat;lon;timestamp;pressure;altitude;pressure_sealevel;temperature
34023;BMP280;20673;48.980;8.138;2023-05-10T00:01:53;99532.47;;;14.46
34023;BMP280;20673;48.980;8.138;2023-05-10T00:04:20;99527.47;;;14.48
34023;BMP280;20673;48.980;8.138;2023-05-10T00:06:47;99533.65;;;14.46
34023;BMP280;20673;48.980;8.138;2023-05-10T00:09:13;99540.68;;;14.44
34023;BMP280;20673;48.980;8.138;2023-05-10T00:11:39;99544.61;;;14.44
34023;BMP280;20673;48.980;8.138;2023-05-10T00:14:06;99548.18;;;14.43
34023;BMP280;20673;48.980;8.138;2023-05-10T00:16:32;99540.95;;;14.46
34023;BMP280;20673;48.980;8.138;2023-05-10T00:18:58;99543.97;;;14.46
34023;BMP280;20673;48.980;8.138;2023-05-10T00:21:24;99543.72;;;14.46
34023;BMP280;20673;48.980;8.138;2023-05-10T00:23:50;99550.86;;;14.43
34023;BMP280;20673;48.980;8.138;2023-05-10T00:26:16;99548.88;;;14.44
34023;BMP280;20673;48.980;8.138;2023-05-10T00:28:43;99543.01;;;14.48
34023;BMP280;20673;48.980;8.138;2023-05-10T00:31:09;99553.72;;;14.48
34023;BMP280;20673;48.980;8.138;2023-05-10T00:33:35;99550.62;;;14.44
34023;BMP280;20673;48.980;8.138;2023-05-10T00:36:01;99552.84;;;14.44
34023;BMP280;20673;48.980;8.138;2023-05-10T00:38:27;99551.58;;;14.46
34023;BMP280;20673;48.980;8.138;2023-05-10T00:40:54;99551.75;;;14.46
34023;BMP280;20673;48.980;8.138;2023-05-10T00:43:20;99554.81;;;14.44
34023;BMP280;20673;48.980;8.138;2023-05-10T00:45:47;99554.83;;;14.43
34023;BMP280;20673;48.980;8.138;2023-05-10T00:48:13;99557.83;;;14.43
34023;BMP280;20673;48.980;8.138;2023-05-10T00:50:40;99556.04;;;14.45
34023;BMP280;20673;48.980;8.138;2023-05-10T00:53:07;99557.08;;;14.44
34023;BMP280;20673;48.980;8.138;2023-05-10T00:55:33;99558.28;;;14.41
34023;BMP280;20673;48.980;8.138;2023-05-10T00:58:00;99551.56;;;14.39
34023;BMP280;20673;48.980;8.138;2023-05-10T01:00:26;99549.90;;;14.39
34023;BMP280;20673;48.980;8.138;2023-05-10T01:02:53;99554.47;;;14.38
34023;BMP280;20673;48.980;8.138;2023-05-10T01:05:20;99554.22;;;14.38
34023;BMP280;20673;48.980;8.138;2023-05-10T01:07:46;99549.51;;;14.39
34023;BMP280;20673;48.980;8.138;2023-05-10T01:10:12;99553.25;;;14.37
34023;BMP280;20673;48.980;8.138;2023-05-10T01:12:44;99553.40;;;14.39
34023;BMP280;20673;48.980;8.138;2023-05-10T01:15:10;99550.58;;;14.35
34023;BMP280;20673;48.980;8.138;2023-05-10T01:17:40;99548.33;;;14.34
34023;BMP280;20673;48.980;8.138;2023-05-10T01:20:10;99548.78;;;14.34
34023;BMP280;20673;48.980;8.138;2023-05-10T01:29:49;99544.14;;;14.30
34023;BMP280;20673;48.980;8.138;2023-05-10T01:34:27;99542.72;;;14.35
34023;BMP280;20673;48.980;8.138;2023-05-10T01:37:07;99541.86;;;14.33
34023;BMP280;20673;48.980;8.138;2023-05-10T01:39:55;99550.18;;;14.35
34023;BMP280;20673;48.980;8.138;2023-05-10T01:42:22;99550.86;;;14.35
34023;BMP280;20673;48.980;8.138;2023-05-10T01:47:38;99545.51;;;14.35
34023;BMP280;20673;48.980;8.138;2023-05-10T01:50:10;99550.03;;;14.38
34023;BMP280;20673;48.980;8.138;2023-05-10T01:52:44;99549.43;;;14.36
34023;BMP280;20673;48.980;8.138;2023-05-10T01:55:20;99551.42;;;14.37
34023;BMP280;20673;48.980;8.138;2023-05-10T01:57:51;99552.82;;;14.35
34023;BMP280;20673;48.980;8.138;2023-05-10T02:00:19;99555.08;;;14.31
34023;BMP280;20673;48.980;8.138;2023-05-10T02:02:48;99555.57;;;14.29
34023;BMP280;20673;48.980;8.138;2023-05-10T02:05:16;99555.64;;;14.30
34023;BMP280;20673;48.980;8.138;2023-05-10T02:07:44;99557.65;;;14.25
34023;BMP280;20673;48.980;8.138;2023-05-10T02:10:13;99561.00;;;14.24
34023;BMP280;20673;48.980;8.138;2023-05-10T02:12:43;99561.97;;;14.24
34023;BMP280;20673;48.980;8.138;2023-05-10T02:15:13;99564.47;;;14.25
34023;BMP280;20673;48.980;8.138;2023-05-10T02:17:42;99569.31;;;14.25
34023;BMP280;20673;48.980;8.138;2023-05-10T02:20:11;99564.59;;;14.28
34023;BMP280;20673;48.980;8.138;2023-05-10T02:22:40;99569.20;;;14.28
34023;BMP280;20673;48.980;8.138;2023-05-10T02:25:10;99574.20;;;14.29
34023;BMP280;20673;48.980;8.138;2023-05-10T02:27:38;99574.82;;;14.29
34023;BMP280;20673;48.980;8.138;2023-05-10T02:30:08;99581.00;;;14.30
34023;BMP280;20673;48.980;8.138;2023-05-10T02:32:36;99585.75;;;14.31
34023;BMP280;20673;48.980;8.138;2023-05-10T02:35:04;99579.42;;;14.33
34023;BMP280;20673;48.980;8.138;2023-05-10T02:37:32;99582.30;;;14.33
34023;BMP280;20673;48.980;8.138;2023-05-10T02:40:01;99583.34;;;14.30
34023;BMP280;20673;48.980;8.138;2023-05-10T02:42:32;99579.62;;;14.26
34023;BMP280;20673;48.980;8.138;2023-05-10T02:45:10;99584.81;;;14.21
34023;BMP280;20673;48.980;8.138;2023-05-10T02:47:33;99584.31;;;14.21
34023;BMP280;20673;48.980;8.138;2023-05-10T02:49:59;99583.08;;;14.18
34023;BMP280;20673;48.980;8.138;2023-05-10T02:52:30;99582.72;;;14.17
34023;BMP280;20673;48.980;8.138;2023-05-10T02:55:02;99582.72;;;14.12
34023;BMP280;20673;48.980;8.138;2023-05-10T02:57:34;99586.39;;;14.14
34023;BMP280;20673;48.980;8.138;2023-05-10T03:00:02;99585.25;;;14.11
34023;BMP280;20673;48.980;8.138;2023-05-10T03:02:29;99595.68;;;14.07
34023;BMP280;20673;48.980;8.138;2023-05-10T03:04:56;99577.42;;;14.07
34023;BMP280;20673;48.980;8.138;2023-05-10T03:07:23;99588.03;;;14.08
34023;BMP280;20673;48.980;8.138;2023-05-10T03:09:49;99590.24;;;14.08
34023;BMP280;20673;48.980;8.138;2023-05-10T03:12:51;99580.93;;;14.12
34023;BMP280;20673;48.980;8.138;2023-05-10T03:18:47;99591.23;;;14.10
34023;BMP280;20673;48.980;8.138;2023-05-10T03:21:13;99591.22;;;14.07
34023;BMP280;20673;48.980;8.138;2023-05-10T03:23:46;99585.87;;;14.06
34023;BMP280;20673;48.980;8.138;2023-05-10T03:26:19;99588.56;;;14.05
34023;BMP280;20673;48.980;8.138;2023-05-10T03:28:48;99591.06;;;14.05
34023;BMP280;20673;48.980;8.138;2023-05-10T03:31:14;99600.43;;;14.03
34023;BMP280;20673;48.980;8.138;2023-05-10T03:33:50;99599.33;;;14.01
34023;BMP280;20673;48.980;8.138;2023-05-10T03:36:17;99599.33;;;14.01
34023;BMP280;20673;48.980;8.138;2023-05-10T03:38:43;99600.62;;;14.01
34023;BMP280;20673;48.980;8.138;2023-05-10T03:41:09;99605.50;;;14.03
34023;BMP280;20673;48.980;8.138;2023-05-10T03:43:35;99608.75;;;14.02
34023;BMP280;20673;48.980;8.138;2023-05-10T03:46:04;99610.14;;;14.02
34023;BMP280;20673;48.980;8.138;2023-05-10T03:48:31;99607.84;;;14.05
34023;BMP280;20673;48.980;8.138;2023-05-10T03:50:58;99615.08;;;14.05
34023;BMP280;20673;48.980;8.138;2023-05-10T03:53:25;99612.87;;;14.04
34023;BMP280;20673;48.980;8.138;2023-05-10T03:55:52;99614.37;;;14.09
34023;BMP280;20673;48.980;8.138;2023-05-10T03:58:19;99613.40;;;14.09
34023;BMP280;20673;48.980;8.138;2023-05-10T04:00:45;99617.75;;;14.10
34023;BMP280;20673;48.980;8.138;2023-05-10T04:03:12;99622.51;;;14.10
34023;BMP280;20673;48.980;8.138;2023-05-10T04:05:39;99622.31;;;14.10
34023;BMP280;20673;48.980;8.138;2023-05-10T04:08:05;99617.67;;;14.08
34023;BMP280;20673;48.980;8.138;2023-05-10T04:10:32;99620.47;;;14.09
34023;BMP280;20673;48.980;8.138;2023-05-10T04:12:58;99621.01;;;14.09
34023;BMP280;20673;48.980;8.138;2023-05-10T04:15:24;99621.84;;;14.10
34023;BMP280;20673;48.980;8.138;2023-05-10T04:17:51;99620.29;;;14.11
34023;BMP280;20673;48.980;8.138;2023-05-10T04:20:17;99624.58;;;14.13
34023;BMP280;20673;48.980;8.138;2023-05-10T04:22:43;99626.85;;;14.11
34023;BMP280;20673;48.980;8.138;2023-05-10T04:25:09;99627.34;;;14.12
34023;BMP280;20673;48.980;8.138;2023-05-10T04:27:36;99625.39;;;14.15
34023;BMP280;20673;48.980;8.138;2023-05-10T04:30:03;99628.09;;;14.16
34023;BMP280;20673;48.980;8.138;2023-05-10T04:32:29;99631.06;;;14.16
34023;BMP280;20673;48.980;8.138;2023-05-10T04:34:55;99629.89;;;14.16
34023;BMP280;20673;48.980;8.138;2023-05-10T04:37:22;99630.53;;;14.15
34023;BMP280;20673;48.980;8.138;2023-05-10T04:39:48;99629.64;;;14.21
34023;BMP280;20673;48.980;8.138;2023-05-10T04:42:14;99634.00;;;14.19
34023;BMP280;20673;48.980;8.138;2023-05-10T04:44:41;99631.56;;;14.17
34023;BMP280;20673;48.980;8.138;2023-05-10T04:47:07;99632.72;;;14.18
34023;BMP280;20673;48.980;8.138;2023-05-10T04:49:33;99629.18;;;14.18
34023;BMP280;20673;48.980;8.138;2023-05-10T04:51:59;99629.36;;;14.20
34023;BMP280;20673;48.980;8.138;2023-05-10T04:54:25;99633.00;;;14.24
34023;BMP280;20673;48.980;8.138;2023-05-10T04:56:52;99635.36;;;14.27
34023;BMP280;20673;48.980;8.138;2023-05-10T04:59:18;99635.87;;;14.29
34023;BMP280;20673;48.980;8.138;2023-05-10T05:01:44;99635.08;;;14.33
34023;BMP280;20673;48.980;8.138;2023-05-10T05:04:10;99638.58;;;14.36
34023;BMP280;20673;48.980;8.138;2023-05-10T05:06:36;99635.11;;;14.39
34023;BMP280;20673;48.980;8.138;2023-05-10T05:09:03;99633.28;;;14.43
34023;BMP280;20673;48.980;8.138;2023-05-10T05:11:29;99632.95;;;14.46
34023;BMP280;20673;48.980;8.138;2023-05-10T05:13:55;99635.43;;;14.49
34023;BMP280;20673;48.980;8.138;2023-05-10T05:16:21;99637.33;;;14.51
34023;BMP280;20673;48.980;8.138;2023-05-10T05:18:47;99637.47;;;14.53
34023;BMP280;20673;48.980;8.138;2023-05-10T05:21:17;99640.17;;;14.59
34023;BMP280;20673;48.980;8.138;2023-05-10T05:23:44;99642.45;;;14.57
34023;BMP280;20673;48.980;8.138;2023-05-10T05:26:10;99646.69;;;14.59
34023;BMP280;20673;48.980;8.138;2023-05-10T05:28:37;99645.96;;;14.62
34023;BMP280;20673;48.980;8.138;2023-05-10T05:31:05;99645.97;;;14.57
34023;BMP280;20673;48.980;8.138;2023-05-10T05:33:31;99646.65;;;14.59
34023;BMP280;20673;48.980;8.138;2023-05-10T05:36:03;99652.75;;;14.60
34023;BMP280;20673;48.980;8.138;2023-05-10T05:38:29;99657.76;;;14.60
34023;BMP280;20673;48.980;8.138;2023-05-10T05:40:56;99664.70;;;14.60
34023;BMP280;20673;48.980;8.138;2023-05-10T05:43:22;99670.39;;;14.60
34023;BMP280;20673;48.980;8.138;2023-05-10T05:45:49;99667.30;;;14.64
34023;BMP280;20673;48.980;8.138;2023-05-10T05:48:15;99670.83;;;14.67
34023;BMP280;20673;48.980;8.138;2023-05-10T05:50:41;99671.11;;;14.71
34023;BMP280;20673;48.980;8.138;2023-05-10T05:53:08;99678.29;;;14.69
34023;BMP280;20673;48.980;8.138;2023-05-10T05:55:35;99687.64;;;14.65
34023;BMP280;20673;48.980;8.138;2023-05-10T05:58:01;99692.29;;;14.69
34023;BMP280;20673;48.980;8.138;2023-05-10T06:00:27;99690.95;;;14.77
34023;BMP280;20673;48.980;8.138;2023-05-10T06:02:53;99691.58;;;14.82
34023;BMP280;20673;48.980;8.138;2023-05-10T06:05:19;99697.22;;;14.86
34023;BMP280;20673;48.980;8.138;2023-05-10T06:07:46;99696.72;;;14.90
34023;BMP280;20673;48.980;8.138;2023-05-10T06:10:12;99698.48;;;14.99
34023;BMP280;20673;48.980;8.138;2023-05-10T06:12:38;99700.90;;;15.07
34023;BMP280;20673;48.980;8.138;2023-05-10T06:15:06;99702.18;;;15.16
34023;BMP280;20673;48.980;8.138;2023-05-10T06:17:32;99701.54;;;15.24
34023;BMP280;20673;48.980;8.138;2023-05-10T06:19:58;99707.06;;;15.28
34023;BMP280;20673;48.980;8.138;2023-05-10T06:22:26;99704.82;;;15.27
34023;BMP280;20673;48.980;8.138;2023-05-10T06:24:52;99709.15;;;15.31
34023;BMP280;20673;48.980;8.138;2023-05-10T06:27:18;99706.12;;;15.39
34023;BMP280;20673;48.980;8.138;2023-05-10T06:29:45;99703.81;;;15.38
34023;BMP280;20673;48.980;8.138;2023-05-10T06:32:12;99704.35;;;15.50
34023;BMP280;20673;48.980;8.138;2023-05-10T06:34:39;99713.34;;;15.48
34023;BMP280;20673;48.980;8.138;2023-05-10T06:37:05;99708.58;;;15.62
34023;BMP280;20673;48.980;8.138;2023-05-10T06:39:31;99709.81;;;15.64
34023;BMP280;20673;48.980;8.138;2023-05-10T06:41:58;99705.76;;;15.68
34023;BMP280;20673;48.980;8.138;2023-05-10T06:44:24;99708.47;;;15.71
34023;BMP280;20673;48.980;8.138;2023-05-10T06:46:50;99709.33;;;15.66
34023;BMP280;20673;48.980;8.138;2023-05-10T06:49:18;99710.36;;;15.67
34023;BMP280;20673;48.980;8.138;2023-05-10T06:51:44;99717.75;;;15.71
34023;BMP280;20673;48.980;8.138;2023-05-10T06:54:10;99724.50;;;15.62
34023;BMP280;20673;48.980;8.138;2023-05-10T06:56:37;99728.76;;;15.60
34023;BMP280;20673;48.980;8.138;2023-05-10T06:59:03;99732.09;;;15.71
34023;BMP280;20673;48.980;8.138;2023-05-10T07:01:29;99730.15;;;15.68
34023;BMP280;20673;48.980;8.138;2023-05-10T07:03:55;99733.31;;;15.63
34023;BMP280;20673;48.980;8.138;2023-05-10T07:06:22;99728.40;;;15.76
34023;BMP280;20673;48.980;8.138;2023-05-10T07:08:48;99731.11;;;15.78
34023;BMP280;20673;48.980;8.138;2023-05-10T07:11:14;99732.50;;;15.74
34023;BMP280;20673;48.980;8.138;2023-05-10T07:13:40;99737.84;;;15.85
34023;BMP280;20673;48.980;8.138;2023-05-10T07:16:09;99735.35;;;15.86
34023;BMP280;20673;48.980;8.138;2023-05-10T07:18:36;99733.09;;;15.85
34023;BMP280;20673;48.980;8.138;2023-05-10T07:21:02;99740.79;;;15.92
34023;BMP280;20673;48.980;8.138;2023-05-10T07:23:29;99736.23;;;15.95
34023;BMP280;20673;48.980;8.138;2023-05-10T07:25:55;99731.25;;;16.00
34023;BMP280;20673;48.980;8.138;2023-05-10T07:28:23;99740.03;;;16.06
34023;BMP280;20673;48.980;8.138;2023-05-10T07:30:50;99744.65;;;16.11
34023;BMP280;20673;48.980;8.138;2023-05-10T07:33:16;99745.06;;;16.09
34023;BMP280;20673;48.980;8.138;2023-05-10T07:35:44;99747.89;;;16.07
34023;BMP280;20673;48.980;8.138;2023-05-10T07:38:11;99748.81;;;16.13
34023;BMP280;20673;48.980;8.138;2023-05-10T07:40:41;99743.34;;;16.36
34023;BMP280;20673;48.980;8.138;2023-05-10T07:43:08;99744.76;;;16.46
34023;BMP280;20673;48.980;8.138;2023-05-10T07:45:34;99747.97;;;16.53
34023;BMP280;20673;48.980;8.138;2023-05-10T07:48:01;99749.84;;;16.56
34023;BMP280;20673;48.980;8.138;2023-05-10T07:50:27;99758.65;;;16.48
34023;BMP280;20673;48.980;8.138;2023-05-10T07:52:53;99763.51;;;16.51
34023;BMP280;20673;48.980;8.138;2023-05-10T07:55:20;99763.15;;;16.68
34023;BMP280;20673;48.980;8.138;2023-05-10T07:57:47;99756.06;;;16.60
34023;BMP280;20673;48.980;8.138;2023-05-10T08:00:19;99761.19;;;16.64
34023;BMP280;20673;48.980;8.138;2023-05-10T08:02:46;99765.22;;;16.79
34023;BMP280;20673;48.980;8.138;2023-05-10T08:05:13;99758.62;;;16.67
34023;BMP280;20673;48.980;8.138;2023-05-10T08:07:40;99764.47;;;16.49
34023;BMP280;20673;48.980;8.138;2023-05-10T08:10:08;99770.50;;;16.45
34023;BMP280;20673;48.980;8.138;2023-05-10T08:12:34;99773.46;;;16.21
34023;BMP280;20673;48.980;8.138;2023-05-10T08:15:00;99770.67;;;16.12
34023;BMP280;20673;48.980;8.138;2023-05-10T08:17:26;99773.55;;;16.21
34023;BMP280;20673;48.980;8.138;2023-05-10T08:19:52;99778.57;;;16.30
34023;BMP280;20673;48.980;8.138;2023-05-10T08:22:18;99775.58;;;16.42
34023;BMP280;20673;48.980;8.138;2023-05-10T08:24:45;99782.78;;;16.50
34023;BMP280;20673;48.980;8.138;2023-05-10T08:27:11;99774.41;;;16.78
34023;BMP280;20673;48.980;8.138;2023-05-10T08:29:37;99766.53;;;16.83
34023;BMP280;20673;48.980;8.138;2023-05-10T08:32:04;99775.31;;;16.88
34023;BMP280;20673;48.980;8.138;2023-05-10T08:34:30;99775.65;;;16.80
34023;BMP280;20673;48.980;8.138;2023-05-10T08:36:57;99775.10;;;16.73
34023;BMP280;20673;48.980;8.138;2023-05-10T08:39:23;99779.70;;;16.64
34023;BMP280;20673;48.980;8.138;2023-05-10T08:41:51;99779.50;;;16.71
34023;BMP280;20673;48.980;8.138;2023-05-10T08:44:19;99781.33;;;16.82
34023;BMP280;20673;48.980;8.138;2023-05-10T08:46:46;99783.15;;;16.81
34023;BMP280;20673;48.980;8.138;2023-05-10T08:49:17;99778.51;;;16.96
34023;BMP280;20673;48.980;8.138;2023-05-10T08:51:50;99783.53;;;16.90
34023;BMP280;20673;48.980;8.138;2023-05-10T08:54:17;99783.33;;;16.94
34023;BMP280;20673;48.980;8.138;2023-05-10T08:56:44;99795.74;;;16.73
34023;BMP280;20673;48.980;8.138;2023-05-10T08:59:11;99796.22;;;16.64
34023;BMP280;20673;48.980;8.138;2023-05-10T09:01:39;99804.11;;;16.56
34023;BMP280;20673;48.980;8.138;2023-05-10T09:04:06;99795.40;;;16.42
34023;BMP280;20673;48.980;8.138;2023-05-10T09:06:33;99804.47;;;16.46
34023;BMP280;20673;48.980;8.138;2023-05-10T09:09:00;99801.43;;;16.61
34023;BMP280;20673;48.980;8.138;2023-05-10T09:11:28;99800.04;;;16.69
34023;BMP280;20673;48.980;8.138;2023-05-10T09:13:56;99809.66;;;16.76
34023;BMP280;20673;48.980;8.138;2023-05-10T09:16:23;99802.82;;;16.79
34023;BMP280;20673;48.980;8.138;2023-05-10T09:18:50;99796.40;;;16.98
34023;BMP280;20673;48.980;8.138;2023-05-10T09:21:19;99809.73;;;16.91
34023;BMP280;20673;48.980;8.138;2023-05-10T09:23:46;99805.17;;;17.00
34023;BMP280;20673;48.980;8.138;2023-05-10T09:26:16;99816.01;;;17.13
34023;BMP280;20673;48.980;8.138;2023-05-10T09:28:58;99816.61;;;16.88
34023;BMP280;20673;48.980;8.138;2023-05-10T09:31:47;99817.44;;;17.22
34023;BMP280;20673;48.980;8.138;2023-05-10T09:34:18;99822.47;;;17.23
34023;BMP280;20673;48.980;8.138;2023-05-10T09:36:59;99808.48;;;17.18
34023;BMP280;20673;48.980;8.138;2023-05-10T09:39:37;99813.90;;;17.10
34023;BMP280;20673;48.980;8.138;2023-05-10T09:42:09;99824.67;;;17.19
34023;BMP280;20673;48.980;8.138;2023-05-10T09:44:36;99818.06;;;17.27
34023;BMP280;20673;48.980;8.138;2023-05-10T09:47:04;99822.61;;;17.35
34023;BMP280;20673;48.980;8.138;2023-05-10T09:49:31;99827.39;;;17.29
34023;BMP280;20673;48.980;8.138;2023-05-10T09:52:03;99831.22;;;17.46
34023;BMP280;20673;48.980;8.138;2023-05-10T09:54:30;99833.29;;;17.56
34023;BMP280;20673;48.980;8.138;2023-05-10T09:56:57;99821.40;;;17.97
34023;BMP280;20673;48.980;8.138;2023-05-10T09:59:26;99827.01;;;17.78
34023;BMP280;20673;48.980;8.138;2023-05-10T10:01:59;99834.89;;;17.95
34023;BMP280;20673;48.980;8.138;2023-05-10T10:04:26;99843.94;;;17.51
34023;BMP280;20673;48.980;8.138;2023-05-10T10:07:02;99844.46;;;17.61
34023;BMP280;20673;48.980;8.138;2023-05-10T10:09:32;99846.54;;;17.53
34023;BMP280;20673;48.980;8.138;2023-05-10T10:12:04;99836.25;;;18.02
34023;BMP280;20673;48.980;8.138;2023-05-10T10:14:31;99837.92;;;18.10
34023;BMP280;20673;48.980;8.138;2023-05-10T10:17:00;99844.93;;;18.23
34023;BMP280;20673;48.980;8.138;2023-05-10T10:19:35;99846.77;;;18.21
34023;BMP280;20673;48.980;8.138;2023-05-10T10:22:02;99835.54;;;18.04
34023;BMP280;20673;48.980;8.138;2023-05-10T10:24:29;99844.06;;;18.35
34023;BMP280;20673;48.980;8.138;2023-05-10T10:27:07;99845.72;;;18.63
34023;BMP280;20673;48.980;8.138;2023-05-10T10:29:47;99849.75;;;18.67
34023;BMP280;20673;48.980;8.138;2023-05-10T10:35:34;99851.11;;;18.98
34023;BMP280;20673;48.980;8.138;2023-05-10T10:38:01;99851.17;;;18.91
34023;BMP280;20673;48.980;8.138;2023-05-10T10:40:33;99846.39;;;18.92
34023;BMP280;20673;48.980;8.138;2023-05-10T10:43:23;99854.54;;;18.99
34023;BMP280;20673;48.980;8.138;2023-05-10T10:46:15;99841.61;;;18.61
34023;BMP280;20673;48.980;8.138;2023-05-10T10:49:09;99842.97;;;18.67
34023;BMP280;20673;48.980;8.138;2023-05-10T10:51:39;99846.68;;;18.54
34023;BMP280;20673;48.980;8.138;2023-05-10T10:54:12;99841.48;;;18.30
34023;BMP280;20673;48.980;8.138;2023-05-10T10:56:39;99859.27;;;18.65
34023;BMP280;20673;48.980;8.138;2023-05-10T10:59:05;99861.90;;;19.23
34023;BMP280;20673;48.980;8.138;2023-05-10T11:01:34;99857.34;;;19.41
34023;BMP280;20673;48.980;8.138;2023-05-10T11:06:35;99851.29;;;19.06
34023;BMP280;20673;48.980;8.138;2023-05-10T11:09:07;99853.18;;;18.89
34023;BMP280;20673;48.980;8.138;2023-05-10T11:11:35;99865.86;;;18.83
34023;BMP280;20673;48.980;8.138;2023-05-10T11:14:07;99858.50;;;19.13
34023;BMP280;20673;48.980;8.138;2023-05-10T11:16:44;99855.68;;;19.43
34023;BMP280;20673;48.980;8.138;2023-05-10T11:19:13;99856.02;;;19.43
34023;BMP280;20673;48.980;8.138;2023-05-10T11:24:33;99854.75;;;19.55
34023;BMP280;20673;48.980;8.138;2023-05-10T11:27:01;99851.89;;;19.44
34023;BMP280;20673;48.980;8.138;2023-05-10T11:29:28;99859.48;;;19.42
34023;BMP280;20673;48.980;8.138;2023-05-10T11:31:58;99842.42;;;19.41
34023;BMP280;20673;48.980;8.138;2023-05-10T11:34:29;99851.89;;;18.80
34023;BMP280;20673;48.980;8.138;2023-05-10T11:36:57;99850.03;;;18.80
34023;BMP280;20673;48.980;8.138;2023-05-10T11:39:31;99856.47;;;18.88
34023;BMP280;20673;48.980;8.138;2023-05-10T11:41:58;99852.07;;;18.85
34023;BMP280;20673;48.980;8.138;2023-05-10T11:44:34;99846.04;;;18.91
34023;BMP280;20673;48.980;8.138;2023-05-10T11:47:01;99875.72;;;18.77
34023;BMP280;20673;48.980;8.138;2023-05-10T11:49:27;99864.90;;;18.98
34023;BMP280;20673;48.980;8.138;2023-05-10T11:52:07;99850.58;;;19.38
34023;BMP280;20673;48.980;8.138;2023-05-10T11:54:33;99855.58;;;19.36
34023;BMP280;20673;48.980;8.138;2023-05-10T11:57:03;99852.42;;;19.65
34023;BMP280;20673;48.980;8.138;2023-05-10T11:59:29;99861.31;;;19.57
34023;BMP280;20673;48.980;8.138;2023-05-10T12:01:56;99863.17;;;19.39
34023;BMP280;20673;48.980;8.138;2023-05-10T12:04:22;99851.75;;;19.53
34023;BMP280;20673;48.980;8.138;2023-05-10T12:06:49;99852.19;;;19.98
34023;BMP280;20673;48.980;8.138;2023-05-10T12:09:15;99853.58;;;19.92
34023;BMP280;20673;48.980;8.138;2023-05-10T12:11:41;99840.97;;;19.54
34023;BMP280;20673;48.980;8.138;2023-05-10T12:14:08;99849.54;;;19.31
34023;BMP280;20673;48.980;8.138;2023-05-10T12:16:35;99851.16;;;19.39
34023;BMP280;20673;48.980;8.138;2023-05-10T12:19:02;99853.66;;;19.35
34023;BMP280;20673;48.980;8.138;2023-05-10T12:21:29;99860.95;;;19.52
34023;BMP280;20673;48.980;8.138;2023-05-10T12:24:03;99861.43;;;19.99
34023;BMP280;20673;48.980;8.138;2023-05-10T12:26:29;99853.90;;;20.40
34023;BMP280;20673;48.980;8.138;2023-05-10T12:29:16;99856.93;;;20.13
34023;BMP280;20673;48.980;8.138;2023-05-10T12:31:58;99850.24;;;20.98
34023;BMP280;20673;48.980;8.138;2023-05-10T12:34:35;99858.06;;;20.68
34023;BMP280;20673;48.980;8.138;2023-05-10T12:37:04;99853.81;;;20.72
34023;BMP280;20673;48.980;8.138;2023-05-10T12:39:41;99843.19;;;20.50
34023;BMP280;20673;48.980;8.138;2023-05-10T12:42:07;99850.42;;;20.20
34023;BMP280;20673;48.980;8.138;2023-05-10T12:44:34;99854.38;;;20.30
34023;BMP280;20673;48.980;8.138;2023-05-10T12:47:00;99855.36;;;20.54
34023;BMP280;20673;48.980;8.138;2023-05-10T12:49:26;99850.15;;;20.70
34023;BMP280;20673;48.980;8.138;2023-05-10T12:51:53;99840.79;;;20.84
34023;BMP280;20673;48.980;8.138;2023-05-10T12:54:19;99847.54;;;20.71
34023;BMP280;20673;48.980;8.138;2023-05-10T12:56:45;99860.83;;;20.44
34023;BMP280;20673;48.980;8.138;2023-05-10T12:59:11;99853.53;;;20.80
34023;BMP280;20673;48.980;8.138;2023-05-10T13:01:37;99845.87;;;20.87
34023;BMP280;20673;48.980;8.138;2023-05-10T13:04:04;99839.59;;;21.23
34023;BMP280;20673;48.980;8.138;2023-05-10T13:06:30;99841.00;;;20.37
34023;BMP280;20673;48.980;8.138;2023-05-10T13:08:56;99830.56;;;20.03
34023;BMP280;20673;48.980;8.138;2023-05-10T13:11:23;99830.26;;;19.90
34023;BMP280;20673;48.980;8.138;2023-05-10T13:13:49;99841.03;;;19.56
34023;BMP280;20673;48.980;8.138;2023-05-10T13:16:15;99842.23;;;19.64
34023;BMP280;20673;48.980;8.138;2023-05-10T13:18:41;99844.24;;;19.74
34023;BMP280;20673;48.980;8.138;2023-05-10T13:21:07;99828.56;;;19.94
34023;BMP280;20673;48.980;8.138;2023-05-10T13:23:34;99822.45;;;19.95
34023;BMP280;20673;48.980;8.138;2023-05-10T13:26:00;99823.48;;;19.87
34023;BMP280;20673;48.980;8.138;2023-05-10T13:28:26;99826.68;;;19.70
34023;BMP280;20673;48.980;8.138;2023-05-10T13:30:53;99822.29;;;19.82
34023;BMP280;20673;48.980;8.138;2023-05-10T13:33:20;99820.53;;;19.55
34023;BMP280;20673;48.980;8.138;2023-05-10T13:35:46;99822.18;;;19.74
34023;BMP280;20673;48.980;8.138;2023-05-10T13:38:12;99820.79;;;19.58
34023;BMP280;20673;48.980;8.138;2023-05-10T13:40:39;99818.31;;;19.50
34023;BMP280;20673;48.980;8.138;2023-05-10T13:43:06;99815.05;;;19.49
34023;BMP280;20673;48.980;8.138;2023-05-10T13:45:32;99815.01;;;19.35
34023;BMP280;20673;48.980;8.138;2023-05-10T13:47:59;99816.90;;;19.23
34023;BMP280;20673;48.980;8.138;2023-05-10T13:50:25;99817.67;;;19.10
34023;BMP280;20673;48.980;8.138;2023-05-10T13:52:52;99816.87;;;19.17
34023;BMP280;20673;48.980;8.138;2023-05-10T13:55:19;99814.95;;;19.22
34023;BMP280;20673;48.980;8.138;2023-05-10T13:57:45;99813.65;;;19.20
34023;BMP280;20673;48.980;8.138;2023-05-10T14:00:13;99806.48;;;19.29
34023;BMP280;20673;48.980;8.138;2023-05-10T14:02:39;99813.08;;;19.54
34023;BMP280;20673;48.980;8.138;2023-05-10T14:05:07;99801.47;;;19.76
34023;BMP280;20673;48.980;8.138;2023-05-10T14:07:33;99799.54;;;19.87
34023;BMP280;20673;48.980;8.138;2023-05-10T14:10:00;99797.68;;;20.12
34023;BMP280;20673;48.980;8.138;2023-05-10T14:12:26;99799.50;;;20.08
34023;BMP280;20673;48.980;8.138;2023-05-10T14:14:52;99791.43;;;20.53
34023;BMP280;20673;48.980;8.138;2023-05-10T14:17:18;99784.77;;;20.72
34023;BMP280;20673;48.980;8.138;2023-05-10T14:19:47;99784.61;;;21.23
34023;BMP280;20673;48.980;8.138;2023-05-10T14:22:14;99784.04;;;21.08
34023;BMP280;20673;48.980;8.138;2023-05-10T14:24:40;99784.47;;;21.33
34023;BMP280;20673;48.980;8.138;2023-05-10T14:27:06;99778.59;;;21.15
34023;BMP280;20673;48.980;8.138;2023-05-10T14:29:34;99779.79;;;20.92
34023;BMP280;20673;48.980;8.138;2023-05-10T14:32:03;99782.07;;;20.67
34023;BMP280;20673;48.980;8.138;2023-05-10T14:34:30;99785.90;;;20.56
34023;BMP280;20673;48.980;8.138;2023-05-10T14:36:56;99786.65;;;20.71
34023;BMP280;20673;48.980;8.138;2023-05-10T14:39:22;99777.68;;;20.19